sensor_id;sensor_type;location;lat;lon;timestamp;P1;durP1;ratioP1;P2;durP2;ratioP2
13163;SDS011;6647;53.688;10.746;2023-05-07T00:00:16;16.17;;;12.70;;
13163;SDS011;6647;53.688;10.746;2023-05-07T00:01:39;17.20;;;13.02;;
13163;SDS011;6647;53.688;10.746;2023-05-07T00:03:00;18.20;;;12.95;;
13163;SDS011;6647;53.688;10.746;2023-05-07T00:04:21;19.58;;;12.93;;
13163;SDS011;6647;53.688;10.746;2023-05-07T00:05:42;15.50;;;11.88;;
13163;SDS011;6647;53.688;10.746;2023-05-07T00:07:03;17.13;;;13.00;;
13163;SDS011;6647;53.688;10.746;2023-05-07T00:08:24;17.70;;;13.00;;
13163;SDS011;6647;53.688;10.746;2023-05-07T00:09:45;17.20;;;12.50;;
13163;SDS011;6647;53.688;10.746;2023-05-07T00:11:06;15.55;;;11.80;;
13163;SDS011;6647;53.688;10.746;2023-05-07T00:12:27;19.52;;;11.85;;
13163;SDS011;6647;53.688;10.746;2023-05-07T00:13:48;13.50;;;11.38;;
13163;SDS011;6647;53.688;10.746;2023-05-07T00:15:09;16.42;;;12.35;;
13163;SDS011;6647;53.688;10.746;2023-05-07T00:16:30;15.75;;;12.43;;
13163;SDS011;6647;53.688;10.746;2023-05-07T00:17:50;16.17;;;11.50;;
13163;SDS011;6647;53.688;10.746;2023-05-07T00:19:11;16.55;;;13.10;;
13163;SDS011;6647;53.688;10.746;2023-05-07T00:20:32;17.83;;;12.57;;
13163;SDS011;6647;53.688;10.746;2023-05-07T00:21:53;13.90;;;11.50;;
13163;SDS011;6647;53.688;10.746;2023-05-07T00:23:16;17.05;;;13.27;;
13163;SDS011;6647;53.688;10.746;2023-05-07T00:24:36;16.65;;;12.50;;
13163;SDS011;6647;53.688;10.746;2023-05-07T00:25:57;17.42;;;13.60;;
13163;SDS011;6647;53.688;10.746;2023-05-07T00:27:18;16.63;;;13.25;;
13163;SDS011;6647;53.688;10.746;2023-05-07T00:28:39;16.75;;;13.20;;
13163;SDS011;6647;53.688;10.746;2023-05-07T00:30:00;16.45;;;13.35;;
13163;SDS011;6647;53.688;10.746;2023-05-07T00:31:21;17.63;;;13.82;;
13163;SDS011;6647;53.688;10.746;2023-05-07T00:32:42;18.33;;;12.95;;
13163;SDS011;6647;53.688;10.746;2023-05-07T00:34:05;21.38;;;14.23;;
13163;SDS011;6647;53.688;10.746;2023-05-07T00:35:26;20.20;;;14.05;;
13163;SDS011;6647;53.688;10.746;2023-05-07T00:36:48;16.90;;;12.93;;
13163;SDS011;6647;53.688;10.746;2023-05-07T00:38:09;17.60;;;14.05;;
13163;SDS011;6647;53.688;10.746;2023-05-07T00:39:30;20.27;;;14.60;;
13163;SDS011;6647;53.688;10.746;2023-05-07T00:40:51;17.92;;;14.07;;
13163;SDS011;6647;53.688;10.746;2023-05-07T00:42:12;16.95;;;13.57;;
13163;SDS011;6647;53.688;10.746;2023-05-07T00:43:32;21.50;;;14.88;;
13163;SDS011;6647;53.688;10.746;2023-05-07T00:44:53;24.95;;;15.50;;
13163;SDS011;6647;53.688;10.746;2023-05-07T00:46:15;19.40;;;14.10;;
13163;SDS011;6647;53.688;10.746;2023-05-07T00:47:36;23.00;;;15.32;;
13163;SDS011;6647;53.688;10.746;2023-05-07T00:48:57;17.35;;;13.70;;
13163;SDS011;6647;53.688;10.746;2023-05-07T00:50:18;17.42;;;13.55;;
13163;SDS011;6647;53.688;10.746;2023-05-07T00:51:40;19.20;;;14.70;;
13163;SDS011;6647;53.688;10.746;2023-05-07T00:53:01;23.58;;;14.68;;
13163;SDS011;6647;53.688;10.746;2023-05-07T00:54:22;22.48;;;14.70;;
13163;SDS011;6647;53.688;10.746;2023-05-07T00:55:43;20.20;;;13.40;;
13163;SDS011;6647;53.688;10.746;2023-05-07T00:57:04;19.80;;;14.48;;
13163;SDS011;6647;53.688;10.746;2023-05-07T00:58:26;18.42;;;13.10;;
13163;SDS011;6647;53.688;10.746;2023-05-07T00:59:47;18.48;;;13.80;;
13163;SDS011;6647;53.688;10.746;2023-05-07T01:01:09;18.55;;;14.50;;
13163;SDS011;6647;53.688;10.746;2023-05-07T01:02:30;17.15;;;12.90;;
13163;SDS011;6647;53.688;10.746;2023-05-07T01:03:50;20.88;;;14.90;;
13163;SDS011;6647;53.688;10.746;2023-05-07T01:05:12;17.00;;;14.68;;
13163;SDS011;6647;53.688;10.746;2023-05-07T01:06:35;17.70;;;14.20;;
13163;SDS011;6647;53.688;10.746;2023-05-07T01:07:56;19.10;;;15.02;;
13163;SDS011;6647;53.688;10.746;2023-05-07T01:09:19;19.90;;;15.35;;
13163;SDS011;6647;53.688;10.746;2023-05-07T01:10:40;19.33;;;14.68;;
13163;SDS011;6647;53.688;10.746;2023-05-07T01:12:03;17.80;;;14.25;;
13163;SDS011;6647;53.688;10.746;2023-05-07T01:13:24;23.15;;;16.50;;
13163;SDS011;6647;53.688;10.746;2023-05-07T01:14:45;20.50;;;16.55;;
13163;SDS011;6647;53.688;10.746;2023-05-07T01:16:06;18.77;;;14.45;;
13163;SDS011;6647;53.688;10.746;2023-05-07T01:17:32;22.13;;;16.05;;
13163;SDS011;6647;53.688;10.746;2023-05-07T01:18:54;19.25;;;15.23;;
13163;SDS011;6647;53.688;10.746;2023-05-07T01:20:15;24.70;;;15.15;;
13163;SDS011;6647;53.688;10.746;2023-05-07T01:21:38;23.40;;;15.40;;
13163;SDS011;6647;53.688;10.746;2023-05-07T01:22:59;21.80;;;16.38;;
13163;SDS011;6647;53.688;10.746;2023-05-07T01:24:21;19.58;;;15.98;;
13163;SDS011;6647;53.688;10.746;2023-05-07T01:25:42;19.92;;;15.32;;
13163;SDS011;6647;53.688;10.746;2023-05-07T01:27:03;19.17;;;14.20;;
13163;SDS011;6647;53.688;10.746;2023-05-07T01:28:24;25.15;;;17.52;;
13163;SDS011;6647;53.688;10.746;2023-05-07T01:29:46;22.85;;;16.42;;
13163;SDS011;6647;53.688;10.746;2023-05-07T01:31:06;19.55;;;15.48;;
13163;SDS011;6647;53.688;10.746;2023-05-07T01:32:33;23.02;;;16.70;;
13163;SDS011;6647;53.688;10.746;2023-05-07T01:33:56;19.35;;;15.10;;
13163;SDS011;6647;53.688;10.746;2023-05-07T01:35:20;23.05;;;17.63;;
13163;SDS011;6647;53.688;10.746;2023-05-07T01:36:45;22.95;;;15.60;;
13163;SDS011;6647;53.688;10.746;2023-05-07T01:38:07;19.58;;;14.82;;
13163;SDS011;6647;53.688;10.746;2023-05-07T01:39:28;23.95;;;16.15;;
13163;SDS011;6647;53.688;10.746;2023-05-07T01:40:50;19.00;;;14.90;;
13163;SDS011;6647;53.688;10.746;2023-05-07T01:42:11;23.00;;;14.60;;
13163;SDS011;6647;53.688;10.746;2023-05-07T01:43:32;19.83;;;13.98;;
13163;SDS011;6647;53.688;10.746;2023-05-07T01:44:54;19.48;;;15.13;;
13163;SDS011;6647;53.688;10.746;2023-05-07T01:46:14;19.45;;;13.65;;
13163;SDS011;6647;53.688;10.746;2023-05-07T01:47:37;15.82;;;13.50;;
13163;SDS011;6647;53.688;10.746;2023-05-07T01:48:58;15.85;;;13.18;;
13163;SDS011;6647;53.688;10.746;2023-05-07T01:50:19;16.48;;;13.80;;
13163;SDS011;6647;53.688;10.746;2023-05-07T01:51:41;18.70;;;14.23;;
13163;SDS011;6647;53.688;10.746;2023-05-07T01:53:03;19.38;;;13.20;;
13163;SDS011;6647;53.688;10.746;2023-05-07T01:54:26;16.65;;;13.23;;
13163;SDS011;6647;53.688;10.746;2023-05-07T01:55:48;17.75;;;12.88;;
13163;SDS011;6647;53.688;10.746;2023-05-07T01:57:09;15.65;;;12.32;;
13163;SDS011;6647;53.688;10.746;2023-05-07T01:58:30;17.45;;;13.23;;
13163;SDS011;6647;53.688;10.746;2023-05-07T01:59:51;20.35;;;13.07;;
13163;SDS011;6647;53.688;10.746;2023-05-07T02:01:12;16.60;;;13.27;;
13163;SDS011;6647;53.688;10.746;2023-05-07T02:02:34;13.10;;;11.30;;
13163;SDS011;6647;53.688;10.746;2023-05-07T02:03:55;17.38;;;13.15;;
13163;SDS011;6647;53.688;10.746;2023-05-07T02:05:16;14.70;;;12.10;;
13163;SDS011;6647;53.688;10.746;2023-05-07T02:06:37;12.48;;;11.13;;
13163;SDS011;6647;53.688;10.746;2023-05-07T02:07:58;15.93;;;12.05;;
13163;SDS011;6647;53.688;10.746;2023-05-07T02:09:18;15.68;;;11.98;;
13163;SDS011;6647;53.688;10.746;2023-05-07T02:10:40;15.40;;;12.13;;
13163;SDS011;6647;53.688;10.746;2023-05-07T02:12:01;15.85;;;11.95;;
13163;SDS011;6647;53.688;10.746;2023-05-07T02:13:22;15.93;;;11.35;;
13163;SDS011;6647;53.688;10.746;2023-05-07T02:14:44;14.93;;;11.45;;
13163;SDS011;6647;53.688;10.746;2023-05-07T02:16:05;15.23;;;10.80;;
13163;SDS011;6647;53.688;10.746;2023-05-07T02:17:26;14.15;;;10.48;;
13163;SDS011;6647;53.688;10.746;2023-05-07T02:18:47;13.35;;;10.50;;
13163;SDS011;6647;53.688;10.746;2023-05-07T02:20:08;14.32;;;10.30;;
13163;SDS011;6647;53.688;10.746;2023-05-07T02:21:33;12.10;;;9.93;;
13163;SDS011;6647;53.688;10.746;2023-05-07T02:22:54;13.57;;;10.10;;
13163;SDS011;6647;53.688;10.746;2023-05-07T02:24:15;12.20;;;9.70;;
13163;SDS011;6647;53.688;10.746;2023-05-07T02:25:36;12.48;;;9.77;;
13163;SDS011;6647;53.688;10.746;2023-05-07T02:26:56;15.20;;;10.27;;
13163;SDS011;6647;53.688;10.746;2023-05-07T02:28:17;13.25;;;11.05;;
13163;SDS011;6647;53.688;10.746;2023-05-07T02:29:38;11.32;;;9.20;;
13163;SDS011;6647;53.688;10.746;2023-05-07T02:30:59;11.93;;;8.95;;
13163;SDS011;6647;53.688;10.746;2023-05-07T02:32:21;11.20;;;8.75;;
13163;SDS011;6647;53.688;10.746;2023-05-07T02:33:43;11.15;;;9.23;;
13163;SDS011;6647;53.688;10.746;2023-05-07T02:35:05;11.27;;;9.20;;
13163;SDS011;6647;53.688;10.746;2023-05-07T02:36:26;10.43;;;8.32;;
13163;SDS011;6647;53.688;10.746;2023-05-07T02:37:48;10.35;;;8.50;;
13163;SDS011;6647;53.688;10.746;2023-05-07T02:39:09;11.35;;;8.43;;
13163;SDS011;6647;53.688;10.746;2023-05-07T02:40:30;9.40;;;8.40;;
13163;SDS011;6647;53.688;10.746;2023-05-07T02:41:53;11.73;;;8.85;;
13163;SDS011;6647;53.688;10.746;2023-05-07T02:43:14;9.85;;;7.72;;
13163;SDS011;6647;53.688;10.746;2023-05-07T02:44:35;16.20;;;9.00;;
13163;SDS011;6647;53.688;10.746;2023-05-07T02:46:03;9.50;;;8.40;;
13163;SDS011;6647;53.688;10.746;2023-05-07T02:47:24;13.20;;;8.38;;
13163;SDS011;6647;53.688;10.746;2023-05-07T02:48:48;9.90;;;7.70;;
13163;SDS011;6647;53.688;10.746;2023-05-07T02:50:09;9.48;;;7.82;;
13163;SDS011;6647;53.688;10.746;2023-05-07T02:51:30;12.20;;;7.78;;
13163;SDS011;6647;53.688;10.746;2023-05-07T02:52:51;14.52;;;8.05;;
13163;SDS011;6647;53.688;10.746;2023-05-07T02:54:12;9.23;;;7.93;;
13163;SDS011;6647;53.688;10.746;2023-05-07T02:55:33;9.43;;;8.38;;
13163;SDS011;6647;53.688;10.746;2023-05-07T02:56:54;12.25;;;8.90;;
13163;SDS011;6647;53.688;10.746;2023-05-07T02:58:15;10.10;;;8.30;;
13163;SDS011;6647;53.688;10.746;2023-05-07T02:59:36;11.18;;;8.93;;
13163;SDS011;6647;53.688;10.746;2023-05-07T03:00:57;12.00;;;9.05;;
13163;SDS011;6647;53.688;10.746;2023-05-07T03:02:18;10.93;;;8.10;;
13163;SDS011;6647;53.688;10.746;2023-05-07T03:03:39;10.57;;;8.63;;
13163;SDS011;6647;53.688;10.746;2023-05-07T03:05:00;10.10;;;8.88;;
13163;SDS011;6647;53.688;10.746;2023-05-07T03:06:21;10.23;;;8.95;;
13163;SDS011;6647;53.688;10.746;2023-05-07T03:07:42;10.90;;;8.32;;
13163;SDS011;6647;53.688;10.746;2023-05-07T03:09:05;9.85;;;8.43;;
13163;SDS011;6647;53.688;10.746;2023-05-07T03:10:26;11.27;;;8.48;;
13163;SDS011;6647;53.688;10.746;2023-05-07T03:11:47;12.00;;;9.07;;
13163;SDS011;6647;53.688;10.746;2023-05-07T03:13:08;12.25;;;9.18;;
13163;SDS011;6647;53.688;10.746;2023-05-07T03:14:29;11.38;;;8.93;;
13163;SDS011;6647;53.688;10.746;2023-05-07T03:15:50;16.10;;;9.80;;
13163;SDS011;6647;53.688;10.746;2023-05-07T03:17:11;11.45;;;8.45;;
13163;SDS011;6647;53.688;10.746;2023-05-07T03:18:32;10.13;;;8.02;;
13163;SDS011;6647;53.688;10.746;2023-05-07T03:19:53;10.15;;;8.82;;
13163;SDS011;6647;53.688;10.746;2023-05-07T03:21:13;11.52;;;9.07;;
13163;SDS011;6647;53.688;10.746;2023-05-07T03:22:34;11.43;;;8.05;;
13163;SDS011;6647;53.688;10.746;2023-05-07T03:23:55;9.82;;;8.52;;
13163;SDS011;6647;53.688;10.746;2023-05-07T03:25:16;13.98;;;8.32;;
13163;SDS011;6647;53.688;10.746;2023-05-07T03:26:37;12.90;;;8.68;;
13163;SDS011;6647;53.688;10.746;2023-05-07T03:27:58;15.75;;;9.20;;
13163;SDS011;6647;53.688;10.746;2023-05-07T03:29:19;11.20;;;8.63;;
13163;SDS011;6647;53.688;10.746;2023-05-07T03:30:40;12.85;;;9.15;;
13163;SDS011;6647;53.688;10.746;2023-05-07T03:32:01;11.68;;;8.57;;
13163;SDS011;6647;53.688;10.746;2023-05-07T03:33:22;11.07;;;8.35;;
13163;SDS011;6647;53.688;10.746;2023-05-07T03:34:43;10.30;;;8.18;;
13163;SDS011;6647;53.688;10.746;2023-05-07T03:36:04;10.45;;;8.77;;
13163;SDS011;6647;53.688;10.746;2023-05-07T03:37:24;9.00;;;8.07;;
13163;SDS011;6647;53.688;10.746;2023-05-07T03:38:46;13.52;;;9.95;;
13163;SDS011;6647;53.688;10.746;2023-05-07T03:40:07;11.43;;;9.82;;
13163;SDS011;6647;53.688;10.746;2023-05-07T03:41:30;10.68;;;9.57;;
13163;SDS011;6647;53.688;10.746;2023-05-07T03:42:51;11.43;;;8.93;;
13163;SDS011;6647;53.688;10.746;2023-05-07T03:44:12;11.60;;;10.15;;
13163;SDS011;6647;53.688;10.746;2023-05-07T03:45:32;11.00;;;9.20;;
13163;SDS011;6647;53.688;10.746;2023-05-07T03:46:53;12.63;;;9.90;;
13163;SDS011;6647;53.688;10.746;2023-05-07T03:48:15;11.35;;;8.30;;
13163;SDS011;6647;53.688;10.746;2023-05-07T03:49:36;11.18;;;8.75;;
13163;SDS011;6647;53.688;10.746;2023-05-07T03:50:57;11.38;;;9.40;;
13163;SDS011;6647;53.688;10.746;2023-05-07T03:52:19;11.35;;;8.52;;
13163;SDS011;6647;53.688;10.746;2023-05-07T03:53:44;10.45;;;9.20;;
13163;SDS011;6647;53.688;10.746;2023-05-07T03:55:05;11.25;;;8.75;;
13163;SDS011;6647;53.688;10.746;2023-05-07T03:56:26;12.43;;;8.95;;
13163;SDS011;6647;53.688;10.746;2023-05-07T03:57:48;20.10;;;9.60;;
13163;SDS011;6647;53.688;10.746;2023-05-07T03:59:08;11.70;;;8.90;;
13163;SDS011;6647;53.688;10.746;2023-05-07T04:00:29;13.70;;;9.13;;
13163;SDS011;6647;53.688;10.746;2023-05-07T04:01:53;11.13;;;9.07;;
13163;SDS011;6647;53.688;10.746;2023-05-07T04:03:14;10.27;;;9.07;;
13163;SDS011;6647;53.688;10.746;2023-05-07T04:04:35;11.20;;;9.23;;
13163;SDS011;6647;53.688;10.746;2023-05-07T04:05:56;14.05;;;9.82;;
13163;SDS011;6647;53.688;10.746;2023-05-07T04:07:17;10.88;;;9.10;;
13163;SDS011;6647;53.688;10.746;2023-05-07T04:08:38;12.40;;;9.48;;
13163;SDS011;6647;53.688;10.746;2023-05-07T04:09:59;12.48;;;10.13;;
13163;SDS011;6647;53.688;10.746;2023-05-07T04:11:19;11.63;;;9.18;;
13163;SDS011;6647;53.688;10.746;2023-05-07T04:12:40;12.80;;;9.40;;
13163;SDS011;6647;53.688;10.746;2023-05-07T04:14:01;13.88;;;9.20;;
13163;SDS011;6647;53.688;10.746;2023-05-07T04:15:23;11.38;;;8.90;;
13163;SDS011;6647;53.688;10.746;2023-05-07T04:16:44;11.60;;;9.88;;
13163;SDS011;6647;53.688;10.746;2023-05-07T04:18:05;10.45;;;8.88;;
13163;SDS011;6647;53.688;10.746;2023-05-07T04:19:25;13.60;;;10.45;;
13163;SDS011;6647;53.688;10.746;2023-05-07T04:20:49;12.45;;;10.13;;
13163;SDS011;6647;53.688;10.746;2023-05-07T04:22:11;12.10;;;10.15;;
13163;SDS011;6647;53.688;10.746;2023-05-07T04:23:32;12.65;;;9.63;;
13163;SDS011;6647;53.688;10.746;2023-05-07T04:24:53;12.80;;;9.55;;
13163;SDS011;6647;53.688;10.746;2023-05-07T04:26:14;11.75;;;8.70;;
13163;SDS011;6647;53.688;10.746;2023-05-07T04:27:36;12.20;;;9.60;;
13163;SDS011;6647;53.688;10.746;2023-05-07T04:28:57;15.85;;;9.60;;
13163;SDS011;6647;53.688;10.746;2023-05-07T04:30:19;12.52;;;9.27;;
13163;SDS011;6647;53.688;10.746;2023-05-07T04:31:40;11.95;;;9.90;;
13163;SDS011;6647;53.688;10.746;2023-05-07T04:33:01;9.77;;;8.77;;
13163;SDS011;6647;53.688;10.746;2023-05-07T04:34:22;13.35;;;9.02;;
13163;SDS011;6647;53.688;10.746;2023-05-07T04:35:43;12.18;;;9.05;;
13163;SDS011;6647;53.688;10.746;2023-05-07T04:37:04;13.02;;;8.80;;
13163;SDS011;6647;53.688;10.746;2023-05-07T04:38:24;10.15;;;9.02;;
13163;SDS011;6647;53.688;10.746;2023-05-07T04:39:45;10.10;;;8.82;;
13163;SDS011;6647;53.688;10.746;2023-05-07T04:41:06;9.00;;;8.10;;
13163;SDS011;6647;53.688;10.746;2023-05-07T04:42:29;11.95;;;9.38;;
13163;SDS011;6647;53.688;10.746;2023-05-07T04:43:49;12.30;;;9.55;;
13163;SDS011;6647;53.688;10.746;2023-05-07T04:45:11;14.75;;;9.02;;
13163;SDS011;6647;53.688;10.746;2023-05-07T04:46:32;14.82;;;9.20;;
13163;SDS011;6647;53.688;10.746;2023-05-07T04:47:53;11.25;;;8.35;;
13163;SDS011;6647;53.688;10.746;2023-05-07T04:49:14;11.18;;;8.77;;
13163;SDS011;6647;53.688;10.746;2023-05-07T04:50:35;11.68;;;8.85;;
13163;SDS011;6647;53.688;10.746;2023-05-07T04:51:56;13.57;;;8.82;;
13163;SDS011;6647;53.688;10.746;2023-05-07T04:53:17;13.38;;;8.75;;
13163;SDS011;6647;53.688;10.746;2023-05-07T04:54:38;13.07;;;9.23;;
13163;SDS011;6647;53.688;10.746;2023-05-07T04:55:59;11.15;;;8.27;;
13163;SDS011;6647;53.688;10.746;2023-05-07T04:57:20;10.00;;;8.32;;
13163;SDS011;6647;53.688;10.746;2023-05-07T04:58:41;12.38;;;9.18;;
13163;SDS011;6647;53.688;10.746;2023-05-07T05:00:02;12.45;;;8.38;;
13163;SDS011;6647;53.688;10.746;2023-05-07T05:01:24;16.27;;;8.82;;
13163;SDS011;6647;53.688;10.746;2023-05-07T05:02:45;9.85;;;8.40;;
13163;SDS011;6647;53.688;10.746;2023-05-07T05:04:06;10.88;;;8.65;;
13163;SDS011;6647;53.688;10.746;2023-05-07T05:05:27;9.10;;;7.90;;
13163;SDS011;6647;53.688;10.746;2023-05-07T05:06:48;14.00;;;9.38;;
13163;SDS011;6647;53.688;10.746;2023-05-07T05:08:09;10.15;;;8.43;;
13163;SDS011;6647;53.688;10.746;2023-05-07T05:09:30;13.32;;;8.60;;
13163;SDS011;6647;53.688;10.746;2023-05-07T05:10:50;9.13;;;8.10;;
13163;SDS011;6647;53.688;10.746;2023-05-07T05:12:11;14.07;;;9.02;;
13163;SDS011;6647;53.688;10.746;2023-05-07T05:13:32;9.63;;;8.63;;
13163;SDS011;6647;53.688;10.746;2023-05-07T05:14:53;10.73;;;8.10;;
13163;SDS011;6647;53.688;10.746;2023-05-07T05:16:14;12.65;;;9.07;;
13163;SDS011;6647;53.688;10.746;2023-05-07T05:17:36;9.70;;;8.70;;
13163;SDS011;6647;53.688;10.746;2023-05-07T05:18:57;10.98;;;8.18;;
13163;SDS011;6647;53.688;10.746;2023-05-07T05:20:18;11.27;;;8.40;;
13163;SDS011;6647;53.688;10.746;2023-05-07T05:21:38;11.20;;;8.68;;
13163;SDS011;6647;53.688;10.746;2023-05-07T05:22:59;10.68;;;9.13;;
13163;SDS011;6647;53.688;10.746;2023-05-07T05:24:20;12.95;;;10.45;;
13163;SDS011;6647;53.688;10.746;2023-05-07T05:25:41;19.25;;;12.18;;
13163;SDS011;6647;53.688;10.746;2023-05-07T05:27:02;12.75;;;10.10;;
13163;SDS011;6647;53.688;10.746;2023-05-07T05:28:23;10.52;;;9.00;;
13163;SDS011;6647;53.688;10.746;2023-05-07T05:29:44;16.17;;;10.77;;
13163;SDS011;6647;53.688;10.746;2023-05-07T05:31:05;10.70;;;8.98;;
13163;SDS011;6647;53.688;10.746;2023-05-07T05:32:26;13.30;;;9.48;;
13163;SDS011;6647;53.688;10.746;2023-05-07T05:33:47;10.30;;;8.52;;
13163;SDS011;6647;53.688;10.746;2023-05-07T05:35:08;11.23;;;8.88;;
13163;SDS011;6647;53.688;10.746;2023-05-07T05:36:29;11.10;;;8.90;;
13163;SDS011;6647;53.688;10.746;2023-05-07T05:37:50;14.18;;;10.30;;
13163;SDS011;6647;53.688;10.746;2023-05-07T05:39:12;13.38;;;9.57;;
13163;SDS011;6647;53.688;10.746;2023-05-07T05:40:33;12.07;;;9.40;;
13163;SDS011;6647;53.688;10.746;2023-05-07T05:41:53;12.27;;;9.60;;
13163;SDS011;6647;53.688;10.746;2023-05-07T05:43:14;9.75;;;8.02;;
13163;SDS011;6647;53.688;10.746;2023-05-07T05:44:35;10.25;;;8.38;;
13163;SDS011;6647;53.688;10.746;2023-05-07T05:45:56;14.27;;;10.07;;
13163;SDS011;6647;53.688;10.746;2023-05-07T05:47:17;11.48;;;7.70;;
13163;SDS011;6647;53.688;10.746;2023-05-07T05:48:38;9.52;;;8.55;;
13163;SDS011;6647;53.688;10.746;2023-05-07T05:49:59;9.88;;;8.50;;
13163;SDS011;6647;53.688;10.746;2023-05-07T05:51:20;12.68;;;8.98;;
13163;SDS011;6647;53.688;10.746;2023-05-07T05:52:42;9.95;;;8.85;;
13163;SDS011;6647;53.688;10.746;2023-05-07T05:54:03;14.68;;;8.73;;
13163;SDS011;6647;53.688;10.746;2023-05-07T05:55:24;9.80;;;7.90;;
13163;SDS011;6647;53.688;10.746;2023-05-07T05:56:45;13.95;;;7.38;;
13163;SDS011;6647;53.688;10.746;2023-05-07T05:58:06;10.10;;;8.15;;
13163;SDS011;6647;53.688;10.746;2023-05-07T05:59:27;10.98;;;8.05;;
13163;SDS011;6647;53.688;10.746;2023-05-07T06:00:48;10.32;;;7.35;;
13163;SDS011;6647;53.688;10.746;2023-05-07T06:02:12;8.75;;;6.88;;
13163;SDS011;6647;53.688;10.746;2023-05-07T06:03:33;9.90;;;7.75;;
13163;SDS011;6647;53.688;10.746;2023-05-07T06:04:54;10.57;;;7.90;;
13163;SDS011;6647;53.688;10.746;2023-05-07T06:06:15;11.23;;;8.70;;
13163;SDS011;6647;53.688;10.746;2023-05-07T06:07:36;8.35;;;7.07;;
13163;SDS011;6647;53.688;10.746;2023-05-07T06:08:57;8.68;;;6.88;;
13163;SDS011;6647;53.688;10.746;2023-05-07T06:10:18;9.82;;;6.82;;
13163;SDS011;6647;53.688;10.746;2023-05-07T06:11:38;9.52;;;8.05;;
13163;SDS011;6647;53.688;10.746;2023-05-07T06:13:01;9.85;;;7.10;;
13163;SDS011;6647;53.688;10.746;2023-05-07T06:14:22;7.45;;;6.43;;
13163;SDS011;6647;53.688;10.746;2023-05-07T06:15:43;9.52;;;6.90;;
13163;SDS011;6647;53.688;10.746;2023-05-07T06:17:03;9.05;;;8.02;;
13163;SDS011;6647;53.688;10.746;2023-05-07T06:18:25;11.18;;;8.32;;
13163;SDS011;6647;53.688;10.746;2023-05-07T06:19:46;12.45;;;7.60;;
13163;SDS011;6647;53.688;10.746;2023-05-07T06:21:07;10.75;;;7.55;;
13163;SDS011;6647;53.688;10.746;2023-05-07T06:22:28;11.00;;;7.93;;
13163;SDS011;6647;53.688;10.746;2023-05-07T06:23:48;10.75;;;7.20;;
13163;SDS011;6647;53.688;10.746;2023-05-07T06:25:10;7.95;;;6.72;;
13163;SDS011;6647;53.688;10.746;2023-05-07T06:26:31;10.75;;;7.70;;
13163;SDS011;6647;53.688;10.746;2023-05-07T06:27:51;6.72;;;5.85;;
13163;SDS011;6647;53.688;10.746;2023-05-07T06:29:12;8.85;;;7.00;;
13163;SDS011;6647;53.688;10.746;2023-05-07T06:30:33;7.90;;;6.95;;
13163;SDS011;6647;53.688;10.746;2023-05-07T06:31:54;10.27;;;7.80;;
13163;SDS011;6647;53.688;10.746;2023-05-07T06:33:15;10.27;;;7.20;;
13163;SDS011;6647;53.688;10.746;2023-05-07T06:34:36;12.85;;;8.18;;
13163;SDS011;6647;53.688;10.746;2023-05-07T06:35:58;9.30;;;8.10;;
13163;SDS011;6647;53.688;10.746;2023-05-07T06:37:19;8.75;;;7.85;;
13163;SDS011;6647;53.688;10.746;2023-05-07T06:38:40;8.10;;;7.18;;
13163;SDS011;6647;53.688;10.746;2023-05-07T06:40:00;10.23;;;7.68;;
13163;SDS011;6647;53.688;10.746;2023-05-07T06:41:22;11.35;;;8.32;;
13163;SDS011;6647;53.688;10.746;2023-05-07T06:42:42;7.65;;;6.82;;
13163;SDS011;6647;53.688;10.746;2023-05-07T06:44:03;8.13;;;7.32;;
13163;SDS011;6647;53.688;10.746;2023-05-07T06:45:25;7.40;;;6.70;;
13163;SDS011;6647;53.688;10.746;2023-05-07T06:46:46;8.00;;;7.15;;
13163;SDS011;6647;53.688;10.746;2023-05-07T06:48:07;7.97;;;7.18;;
13163;SDS011;6647;53.688;10.746;2023-05-07T06:49:27;11.05;;;6.88;;
13163;SDS011;6647;53.688;10.746;2023-05-07T06:50:48;8.65;;;7.22;;
13163;SDS011;6647;53.688;10.746;2023-05-07T06:52:09;7.95;;;6.80;;
13163;SDS011;6647;53.688;10.746;2023-05-07T06:53:30;8.55;;;6.50;;
13163;SDS011;6647;53.688;10.746;2023-05-07T06:54:51;7.50;;;6.78;;
13163;SDS011;6647;53.688;10.746;2023-05-07T06:56:12;8.18;;;6.72;;
13163;SDS011;6647;53.688;10.746;2023-05-07T06:57:33;7.38;;;6.68;;
13163;SDS011;6647;53.688;10.746;2023-05-07T06:58:53;8.57;;;7.63;;
13163;SDS011;6647;53.688;10.746;2023-05-07T07:00:14;7.57;;;6.80;;
13163;SDS011;6647;53.688;10.746;2023-05-07T07:01:36;7.32;;;5.85;;
13163;SDS011;6647;53.688;10.746;2023-05-07T07:02:56;7.82;;;7.03;;
13163;SDS011;6647;53.688;10.746;2023-05-07T07:04:17;9.50;;;6.72;;
13163;SDS011;6647;53.688;10.746;2023-05-07T07:05:40;8.05;;;6.53;;
13163;SDS011;6647;53.688;10.746;2023-05-07T07:07:01;7.15;;;6.47;;
13163;SDS011;6647;53.688;10.746;2023-05-07T07:08:22;6.38;;;5.70;;
13163;SDS011;6647;53.688;10.746;2023-05-07T07:09:43;7.22;;;6.25;;
13163;SDS011;6647;53.688;10.746;2023-05-07T07:11:05;6.55;;;5.75;;
13163;SDS011;6647;53.688;10.746;2023-05-07T07:12:26;7.80;;;7.00;;
13163;SDS011;6647;53.688;10.746;2023-05-07T07:13:47;9.15;;;7.72;;
13163;SDS011;6647;53.688;10.746;2023-05-07T07:15:08;6.80;;;6.10;;
13163;SDS011;6647;53.688;10.746;2023-05-07T07:16:29;8.23;;;6.68;;
13163;SDS011;6647;53.688;10.746;2023-05-07T07:17:50;9.23;;;7.50;;
13163;SDS011;6647;53.688;10.746;2023-05-07T07:19:11;10.90;;;7.72;;
13163;SDS011;6647;53.688;10.746;2023-05-07T07:20:32;8.93;;;7.60;;
13163;SDS011;6647;53.688;10.746;2023-05-07T07:21:53;9.30;;;7.60;;
13163;SDS011;6647;53.688;10.746;2023-05-07T07:23:13;8.95;;;7.40;;
13163;SDS011;6647;53.688;10.746;2023-05-07T07:24:34;11.38;;;8.05;;
13163;SDS011;6647;53.688;10.746;2023-05-07T07:25:55;10.82;;;7.68;;
13163;SDS011;6647;53.688;10.746;2023-05-07T07:27:16;9.02;;;7.88;;
13163;SDS011;6647;53.688;10.746;2023-05-07T07:28:46;9.35;;;7.40;;
13163;SDS011;6647;53.688;10.746;2023-05-07T07:30:07;8.68;;;7.20;;
13163;SDS011;6647;53.688;10.746;2023-05-07T07:31:28;9.13;;;7.40;;
13163;SDS011;6647;53.688;10.746;2023-05-07T07:32:49;11.60;;;7.63;;
13163;SDS011;6647;53.688;10.746;2023-05-07T07:34:10;10.52;;;7.55;;
13163;SDS011;6647;53.688;10.746;2023-05-07T07:35:33;7.72;;;6.80;;
13163;SDS011;6647;53.688;10.746;2023-05-07T07:36:55;8.63;;;6.80;;
13163;SDS011;6647;53.688;10.746;2023-05-07T07:38:16;9.95;;;6.75;;
13163;SDS011;6647;53.688;10.746;2023-05-07T07:39:37;8.90;;;7.28;;
13163;SDS011;6647;53.688;10.746;2023-05-07T07:40:58;8.40;;;7.50;;
13163;SDS011;6647;53.688;10.746;2023-05-07T07:42:19;10.63;;;7.30;;
13163;SDS011;6647;53.688;10.746;2023-05-07T07:43:39;10.38;;;7.90;;
13163;SDS011;6647;53.688;10.746;2023-05-07T07:45:00;8.15;;;6.82;;
13163;SDS011;6647;53.688;10.746;2023-05-07T07:46:21;9.40;;;8.20;;
13163;SDS011;6647;53.688;10.746;2023-05-07T07:47:42;9.07;;;7.40;;
13163;SDS011;6647;53.688;10.746;2023-05-07T07:49:03;9.30;;;7.30;;
13163;SDS011;6647;53.688;10.746;2023-05-07T07:50:24;8.60;;;7.80;;
13163;SDS011;6647;53.688;10.746;2023-05-07T07:51:45;8.30;;;7.10;;
13163;SDS011;6647;53.688;10.746;2023-05-07T07:53:06;14.55;;;7.05;;
13163;SDS011;6647;53.688;10.746;2023-05-07T07:54:27;8.55;;;7.57;;
13163;SDS011;6647;53.688;10.746;2023-05-07T07:55:48;7.30;;;6.70;;
13163;SDS011;6647;53.688;10.746;2023-05-07T07:57:09;10.95;;;7.32;;
13163;SDS011;6647;53.688;10.746;2023-05-07T07:58:30;8.00;;;7.30;;
13163;SDS011;6647;53.688;10.746;2023-05-07T07:59:51;7.97;;;7.18;;
13163;SDS011;6647;53.688;10.746;2023-05-07T08:01:12;9.35;;;7.53;;